Spokane, WA

3:17 AM PDT on September 16, 2014 (GMT -0700)
Fairchild Air Force Base | Change Station
CLOSE
Current Station
Airport
Location: Spokane Fairchild,
Elevation: 2461 ft
Nearby Weather Stations

Elev 2461 ft 47.62 °N, 117.66 °W | Updated 19 minutes ago

Clear
Clear
58 °F
Feels Like 58 °F
N
6
Wind Variable Wind from NE

Today
High -- | Low -- °F
--% Chance of Precip.
Yesterday
High -- | Low -- °F
Precip. -- in
6:29 AM 7:00 PM
Waning Gibbous, 47% visible
Pressure 29.90 in
Visibility 10.0 miles
Clouds Clear
Dew Point 36 °F
Humidity 44%
Rainfall 0.00 in
Snow Depth 0 in , 0 in , 0 in
UV 0 out of 12
Pollen 7.00 out of 12
PM2.5 Moderate
Flu Activity Not available.
METAR KSKA 160958Z AUTO 05005KT 10SM CLR 14/02 A2993 RMK AO2 SLP125 T01430023

More Conditions Fewer Conditions

Pressure 29.90 in
Visibility 10.0 miles
Clouds Clear
Dew Point 36 °F
Humidity 44%
Rainfall 0.00 in
Snow Depth 0 in , 0 in , 0 in
UV 0 out of 12
Pollen 7.00 out of 12
PM2.5 Moderate
Flu Activity Not available.
METAR KSKA 160958Z AUTO 05005KT 10SM CLR 14/02 A2993 RMK AO2 SLP125 T01430023

More Conditions Fewer Conditions

10-Day Weather Forecast

Almanac

Astronomy

Sep. 16, 2014 Rise Set
Actual Time 6:29 AM PDT 7:00 PM PDT
Civil Twilight 5:58 AM PDT 7:31 PM PDT
Nautical Twilight 5:21 AM PDT 8:07 PM PDT
Astronomical Twilight 4:43 AM PDT 8:45 PM PDT
Moon No Moon Rise 2:46 PM PDT
Length of Visible Light 13h 33m
Length of Day
12h 31m
Tomorrow will be 3m 24s shorter.
Waning Gibbous, 47% of the Moon is Illuminated
Today
Waning Gibbous
Sep 24
New
Oct 1
First Quarter
Oct 8
Full
Oct 15
Last Quarter

Today's Extremes

State Highs State Lows

Community

WunderPhotos

Upload Photos

1,753,717 photos uploaded!

WunderBlogs® & News

Nearby

Air Quality

  Air Quality AQ Index Pollutant
Yesterday Good
PM10
Yesterday Good
OZONE
Current Moderate
PM2.5
Tuesday Good
PM10
Tuesday Good
OZONE

Snow Depth

Station Depth Elevation
Potato Hill 0 in 4500 ft
Burnt Mountain 0 in 4200 ft
Stevens Pass 0 in 4070 ft
Sourdough Gulch 0 in 4000 ft
Sasse Ridge 0 in 4200 ft

Earthquake Activity

City Distance Mag. Time & Date
No recent earthquake activity has been reported nearby.
Minimum magnitude displayed is 2.5.

Coastal Water Temperatures

Place Temperature
No Stations Reporting

Nearby Weather Stations